sensor_id;sensor_type;location;lat;lon;timestamp;P1;durP1;ratioP1;P2;durP2;ratioP2
16892;SDS011;8563;52.242;9.098;2023-03-20T00:02:22;27.10;;;19.83;;
16892;SDS011;8563;52.242;9.098;2023-03-20T00:04:55;29.43;;;20.27;;
16892;SDS011;8563;52.242;9.098;2023-03-20T00:07:29;24.03;;;18.73;;
16892;SDS011;8563;52.242;9.098;2023-03-20T00:10:01;26.67;;;18.43;;
16892;SDS011;8563;52.242;9.098;2023-03-20T00:12:33;25.13;;;17.30;;
16892;SDS011;8563;52.242;9.098;2023-03-20T00:15:07;21.93;;;16.60;;
16892;SDS011;8563;52.242;9.098;2023-03-20T00:17:53;22.40;;;16.20;;
16892;SDS011;8563;52.242;9.098;2023-03-20T00:20:25;24.37;;;17.17;;
16892;SDS011;8563;52.242;9.098;2023-03-20T00:22:59;23.57;;;17.47;;
16892;SDS011;8563;52.242;9.098;2023-03-20T00:25:33;23.73;;;16.60;;
16892;SDS011;8563;52.242;9.098;2023-03-20T00:28:25;25.33;;;17.20;;
16892;SDS011;8563;52.242;9.098;2023-03-20T00:31:01;26.57;;;17.70;;
16892;SDS011;8563;52.242;9.098;2023-03-20T00:33:34;22.20;;;15.80;;
16892;SDS011;8563;52.242;9.098;2023-03-20T00:36:07;25.33;;;17.47;;
16892;SDS011;8563;52.242;9.098;2023-03-20T00:38:41;24.50;;;17.83;;
16892;SDS011;8563;52.242;9.098;2023-03-20T00:41:23;24.10;;;17.07;;
16892;SDS011;8563;52.242;9.098;2023-03-20T00:43:59;27.00;;;17.73;;
16892;SDS011;8563;52.242;9.098;2023-03-20T00:46:34;23.47;;;16.90;;
16892;SDS011;8563;52.242;9.098;2023-03-20T00:49:09;26.20;;;17.50;;
16892;SDS011;8563;52.242;9.098;2023-03-20T00:51:42;29.37;;;18.33;;
16892;SDS011;8563;52.242;9.098;2023-03-20T00:54:16;27.47;;;17.93;;
16892;SDS011;8563;52.242;9.098;2023-03-20T00:56:50;26.20;;;17.80;;
16892;SDS011;8563;52.242;9.098;2023-03-20T00:59:27;24.83;;;16.50;;
16892;SDS011;8563;52.242;9.098;2023-03-20T01:02:01;26.20;;;18.03;;
16892;SDS011;8563;52.242;9.098;2023-03-20T01:04:34;22.73;;;16.17;;
16892;SDS011;8563;52.242;9.098;2023-03-20T01:07:11;24.13;;;17.37;;
16892;SDS011;8563;52.242;9.098;2023-03-20T01:09:47;24.50;;;16.80;;
16892;SDS011;8563;52.242;9.098;2023-03-20T01:12:20;27.83;;;17.30;;
16892;SDS011;8563;52.242;9.098;2023-03-20T01:14:53;25.90;;;17.53;;
16892;SDS011;8563;52.242;9.098;2023-03-20T01:17:27;25.43;;;16.33;;
16892;SDS011;8563;52.242;9.098;2023-03-20T01:20:00;23.27;;;15.67;;
16892;SDS011;8563;52.242;9.098;2023-03-20T01:22:32;22.70;;;15.90;;
16892;SDS011;8563;52.242;9.098;2023-03-20T01:25:07;24.03;;;16.60;;
16892;SDS011;8563;52.242;9.098;2023-03-20T01:27:41;26.63;;;17.23;;
16892;SDS011;8563;52.242;9.098;2023-03-20T01:30:16;25.43;;;17.37;;
16892;SDS011;8563;52.242;9.098;2023-03-20T01:32:52;23.17;;;16.07;;
16892;SDS011;8563;52.242;9.098;2023-03-20T01:35:25;25.37;;;17.20;;
16892;SDS011;8563;52.242;9.098;2023-03-20T01:38:01;23.37;;;15.87;;
16892;SDS011;8563;52.242;9.098;2023-03-20T01:40:36;24.90;;;17.40;;
16892;SDS011;8563;52.242;9.098;2023-03-20T01:43:19;28.00;;;17.37;;
16892;SDS011;8563;52.242;9.098;2023-03-20T01:45:55;20.47;;;14.67;;
16892;SDS011;8563;52.242;9.098;2023-03-20T01:48:35;23.77;;;15.53;;
16892;SDS011;8563;52.242;9.098;2023-03-20T01:51:30;22.63;;;15.73;;
16892;SDS011;8563;52.242;9.098;2023-03-20T01:54:12;29.30;;;16.27;;
16892;SDS011;8563;52.242;9.098;2023-03-20T01:57:04;27.23;;;17.37;;
16892;SDS011;8563;52.242;9.098;2023-03-20T01:59:42;25.73;;;16.50;;
16892;SDS011;8563;52.242;9.098;2023-03-20T02:02:18;26.27;;;16.47;;
16892;SDS011;8563;52.242;9.098;2023-03-20T02:04:55;22.07;;;15.90;;
16892;SDS011;8563;52.242;9.098;2023-03-20T02:07:31;23.27;;;15.80;;
16892;SDS011;8563;52.242;9.098;2023-03-20T02:10:08;25.97;;;16.17;;
16892;SDS011;8563;52.242;9.098;2023-03-20T02:12:55;25.93;;;16.43;;
16892;SDS011;8563;52.242;9.098;2023-03-20T02:15:33;27.03;;;17.73;;
16892;SDS011;8563;52.242;9.098;2023-03-20T02:18:17;23.57;;;15.90;;
16892;SDS011;8563;52.242;9.098;2023-03-20T02:20:55;24.97;;;16.67;;
16892;SDS011;8563;52.242;9.098;2023-03-20T02:27:05;26.77;;;16.50;;
16892;SDS011;8563;52.242;9.098;2023-03-20T02:30:00;24.57;;;16.23;;
16892;SDS011;8563;52.242;9.098;2023-03-20T02:36:32;26.53;;;15.53;;
16892;SDS011;8563;52.242;9.098;2023-03-20T02:42:22;22.93;;;15.87;;
16892;SDS011;8563;52.242;9.098;2023-03-20T02:45:05;24.63;;;15.50;;
16892;SDS011;8563;52.242;9.098;2023-03-20T02:47:47;23.30;;;14.90;;
16892;SDS011;8563;52.242;9.098;2023-03-20T02:50:26;23.87;;;15.97;;
16892;SDS011;8563;52.242;9.098;2023-03-20T02:53:11;22.17;;;14.93;;
16892;SDS011;8563;52.242;9.098;2023-03-20T02:55:52;23.97;;;14.50;;
16892;SDS011;8563;52.242;9.098;2023-03-20T02:58:29;24.70;;;16.20;;
16892;SDS011;8563;52.242;9.098;2023-03-20T03:01:08;25.80;;;17.03;;
16892;SDS011;8563;52.242;9.098;2023-03-20T03:03:46;24.20;;;16.47;;
16892;SDS011;8563;52.242;9.098;2023-03-20T03:06:22;23.43;;;16.27;;
16892;SDS011;8563;52.242;9.098;2023-03-20T03:08:59;26.93;;;17.83;;
16892;SDS011;8563;52.242;9.098;2023-03-20T03:11:38;27.67;;;18.00;;
16892;SDS011;8563;52.242;9.098;2023-03-20T03:14:15;25.60;;;16.07;;
16892;SDS011;8563;52.242;9.098;2023-03-20T03:16:51;24.70;;;17.20;;
16892;SDS011;8563;52.242;9.098;2023-03-20T03:19:25;21.97;;;15.63;;
16892;SDS011;8563;52.242;9.098;2023-03-20T03:22:00;26.03;;;18.03;;
16892;SDS011;8563;52.242;9.098;2023-03-20T03:24:33;24.63;;;17.20;;
16892;SDS011;8563;52.242;9.098;2023-03-20T03:27:09;25.10;;;17.97;;
16892;SDS011;8563;52.242;9.098;2023-03-20T03:29:49;26.73;;;17.37;;
16892;SDS011;8563;52.242;9.098;2023-03-20T03:32:25;25.80;;;17.97;;
16892;SDS011;8563;52.242;9.098;2023-03-20T03:35:01;24.17;;;16.83;;
16892;SDS011;8563;52.242;9.098;2023-03-20T03:37:39;22.87;;;16.70;;
16892;SDS011;8563;52.242;9.098;2023-03-20T03:40:19;23.67;;;15.53;;
16892;SDS011;8563;52.242;9.098;2023-03-20T03:43:00;24.77;;;16.10;;
16892;SDS011;8563;52.242;9.098;2023-03-20T03:45:38;23.57;;;16.10;;
16892;SDS011;8563;52.242;9.098;2023-03-20T03:48:15;23.33;;;15.80;;
16892;SDS011;8563;52.242;9.098;2023-03-20T03:50:50;22.67;;;16.40;;
16892;SDS011;8563;52.242;9.098;2023-03-20T03:53:26;23.87;;;15.90;;
16892;SDS011;8563;52.242;9.098;2023-03-20T03:56:03;24.20;;;16.20;;
16892;SDS011;8563;52.242;9.098;2023-03-20T03:58:42;24.47;;;17.67;;
16892;SDS011;8563;52.242;9.098;2023-03-20T04:01:19;27.17;;;17.40;;
16892;SDS011;8563;52.242;9.098;2023-03-20T04:03:52;27.77;;;17.87;;
16892;SDS011;8563;52.242;9.098;2023-03-20T04:06:30;31.90;;;19.13;;
16892;SDS011;8563;52.242;9.098;2023-03-20T04:09:02;30.00;;;19.23;;
16892;SDS011;8563;52.242;9.098;2023-03-20T04:11:34;29.53;;;18.73;;
16892;SDS011;8563;52.242;9.098;2023-03-20T04:14:08;30.07;;;19.03;;
16892;SDS011;8563;52.242;9.098;2023-03-20T04:16:41;30.77;;;19.30;;
16892;SDS011;8563;52.242;9.098;2023-03-20T04:19:13;32.70;;;20.13;;
16892;SDS011;8563;52.242;9.098;2023-03-20T04:21:48;35.60;;;20.93;;
16892;SDS011;8563;52.242;9.098;2023-03-20T04:24:20;38.60;;;22.20;;
16892;SDS011;8563;52.242;9.098;2023-03-20T04:26:53;34.53;;;22.03;;
16892;SDS011;8563;52.242;9.098;2023-03-20T04:29:28;37.77;;;23.53;;
16892;SDS011;8563;52.242;9.098;2023-03-20T04:32:21;35.00;;;22.80;;
16892;SDS011;8563;52.242;9.098;2023-03-20T04:35:26;36.50;;;22.40;;
16892;SDS011;8563;52.242;9.098;2023-03-20T04:38:06;36.37;;;23.50;;
16892;SDS011;8563;52.242;9.098;2023-03-20T04:40:39;36.53;;;23.37;;
16892;SDS011;8563;52.242;9.098;2023-03-20T04:43:12;35.83;;;24.07;;
16892;SDS011;8563;52.242;9.098;2023-03-20T04:45:46;40.33;;;23.17;;
16892;SDS011;8563;52.242;9.098;2023-03-20T04:48:18;32.87;;;22.37;;
16892;SDS011;8563;52.242;9.098;2023-03-20T04:50:51;32.00;;;21.47;;
16892;SDS011;8563;52.242;9.098;2023-03-20T04:53:28;35.73;;;23.20;;
16892;SDS011;8563;52.242;9.098;2023-03-20T04:56:00;31.43;;;22.00;;
16892;SDS011;8563;52.242;9.098;2023-03-20T04:58:35;35.43;;;23.17;;
16892;SDS011;8563;52.242;9.098;2023-03-20T05:01:09;35.80;;;23.83;;
16892;SDS011;8563;52.242;9.098;2023-03-20T05:03:42;32.93;;;21.20;;
16892;SDS011;8563;52.242;9.098;2023-03-20T05:06:15;32.80;;;22.67;;
16892;SDS011;8563;52.242;9.098;2023-03-20T05:08:48;33.93;;;22.10;;
16892;SDS011;8563;52.242;9.098;2023-03-20T05:11:22;32.63;;;23.27;;
16892;SDS011;8563;52.242;9.098;2023-03-20T05:14:09;32.23;;;22.17;;
16892;SDS011;8563;52.242;9.098;2023-03-20T05:16:55;39.73;;;25.77;;
16892;SDS011;8563;52.242;9.098;2023-03-20T05:19:45;33.90;;;23.73;;
16892;SDS011;8563;52.242;9.098;2023-03-20T05:22:38;34.60;;;24.50;;
16892;SDS011;8563;52.242;9.098;2023-03-20T05:25:32;33.90;;;24.17;;
16892;SDS011;8563;52.242;9.098;2023-03-20T05:28:37;38.37;;;25.73;;
16892;SDS011;8563;52.242;9.098;2023-03-20T05:31:35;32.03;;;23.17;;
16892;SDS011;8563;52.242;9.098;2023-03-20T05:34:20;35.17;;;24.03;;
16892;SDS011;8563;52.242;9.098;2023-03-20T05:37:15;34.50;;;24.17;;
16892;SDS011;8563;52.242;9.098;2023-03-20T05:40:10;32.83;;;23.87;;
16892;SDS011;8563;52.242;9.098;2023-03-20T05:43:04;34.33;;;24.43;;
16892;SDS011;8563;52.242;9.098;2023-03-20T05:45:52;34.20;;;23.50;;
16892;SDS011;8563;52.242;9.098;2023-03-20T05:48:54;34.97;;;24.27;;
16892;SDS011;8563;52.242;9.098;2023-03-20T05:51:50;33.63;;;23.80;;
16892;SDS011;8563;52.242;9.098;2023-03-20T05:54:33;30.50;;;22.27;;
16892;SDS011;8563;52.242;9.098;2023-03-20T05:57:26;34.67;;;25.30;;
16892;SDS011;8563;52.242;9.098;2023-03-20T06:00:07;31.20;;;22.83;;
16892;SDS011;8563;52.242;9.098;2023-03-20T06:02:43;35.17;;;23.77;;
16892;SDS011;8563;52.242;9.098;2023-03-20T06:05:38;28.00;;;21.00;;
16892;SDS011;8563;52.242;9.098;2023-03-20T06:08:12;32.63;;;24.00;;
16892;SDS011;8563;52.242;9.098;2023-03-20T06:10:45;30.70;;;22.00;;
16892;SDS011;8563;52.242;9.098;2023-03-20T06:13:17;32.10;;;22.07;;
16892;SDS011;8563;52.242;9.098;2023-03-20T06:15:50;30.00;;;22.00;;
16892;SDS011;8563;52.242;9.098;2023-03-20T06:18:22;28.27;;;21.00;;
16892;SDS011;8563;52.242;9.098;2023-03-20T06:20:57;27.77;;;21.03;;
16892;SDS011;8563;52.242;9.098;2023-03-20T06:23:33;26.07;;;19.57;;
16892;SDS011;8563;52.242;9.098;2023-03-20T06:26:06;24.00;;;18.53;;
16892;SDS011;8563;52.242;9.098;2023-03-20T06:28:52;23.17;;;18.33;;
16892;SDS011;8563;52.242;9.098;2023-03-20T06:31:24;23.07;;;18.20;;
16892;SDS011;8563;52.242;9.098;2023-03-20T06:33:56;22.57;;;17.97;;
16892;SDS011;8563;52.242;9.098;2023-03-20T06:36:29;23.20;;;17.63;;
16892;SDS011;8563;52.242;9.098;2023-03-20T06:39:08;22.57;;;18.77;;
16892;SDS011;8563;52.242;9.098;2023-03-20T06:41:40;22.37;;;18.13;;
16892;SDS011;8563;52.242;9.098;2023-03-20T06:44:14;22.00;;;17.97;;
16892;SDS011;8563;52.242;9.098;2023-03-20T06:47:06;22.87;;;18.90;;
16892;SDS011;8563;52.242;9.098;2023-03-20T06:49:38;23.10;;;17.20;;
16892;SDS011;8563;52.242;9.098;2023-03-20T06:52:13;23.77;;;18.93;;
16892;SDS011;8563;52.242;9.098;2023-03-20T06:54:51;19.80;;;17.40;;
16892;SDS011;8563;52.242;9.098;2023-03-20T06:57:23;23.33;;;18.20;;
16892;SDS011;8563;52.242;9.098;2023-03-20T06:59:55;20.27;;;16.60;;
16892;SDS011;8563;52.242;9.098;2023-03-20T07:02:27;22.23;;;16.40;;
16892;SDS011;8563;52.242;9.098;2023-03-20T07:05:00;20.47;;;15.80;;
16892;SDS011;8563;52.242;9.098;2023-03-20T07:07:34;21.47;;;16.57;;
16892;SDS011;8563;52.242;9.098;2023-03-20T07:10:08;20.33;;;16.03;;
16892;SDS011;8563;52.242;9.098;2023-03-20T07:12:42;20.30;;;16.27;;
16892;SDS011;8563;52.242;9.098;2023-03-20T07:15:14;18.83;;;15.23;;
16892;SDS011;8563;52.242;9.098;2023-03-20T07:17:47;17.80;;;15.23;;
16892;SDS011;8563;52.242;9.098;2023-03-20T07:20:19;17.90;;;15.00;;
16892;SDS011;8563;52.242;9.098;2023-03-20T07:22:51;17.47;;;15.43;;
16892;SDS011;8563;52.242;9.098;2023-03-20T07:25:29;18.60;;;15.97;;
16892;SDS011;8563;52.242;9.098;2023-03-20T07:28:02;16.90;;;14.77;;
16892;SDS011;8563;52.242;9.098;2023-03-20T07:30:35;18.97;;;15.27;;
16892;SDS011;8563;52.242;9.098;2023-03-20T07:33:08;18.83;;;15.60;;
16892;SDS011;8563;52.242;9.098;2023-03-20T07:35:40;18.53;;;15.80;;
16892;SDS011;8563;52.242;9.098;2023-03-20T07:38:12;19.47;;;16.10;;
16892;SDS011;8563;52.242;9.098;2023-03-20T07:41:08;18.30;;;15.00;;
16892;SDS011;8563;52.242;9.098;2023-03-20T07:43:44;17.40;;;14.90;;
16892;SDS011;8563;52.242;9.098;2023-03-20T07:46:19;16.83;;;14.93;;
16892;SDS011;8563;52.242;9.098;2023-03-20T07:48:51;17.03;;;15.23;;
16892;SDS011;8563;52.242;9.098;2023-03-20T07:51:23;17.93;;;14.80;;
16892;SDS011;8563;52.242;9.098;2023-03-20T07:53:55;17.97;;;14.70;;
16892;SDS011;8563;52.242;9.098;2023-03-20T07:56:29;16.33;;;14.60;;
16892;SDS011;8563;52.242;9.098;2023-03-20T07:59:01;17.60;;;15.20;;
16892;SDS011;8563;52.242;9.098;2023-03-20T08:01:33;15.50;;;13.87;;
16892;SDS011;8563;52.242;9.098;2023-03-20T08:04:05;16.73;;;14.93;;
16892;SDS011;8563;52.242;9.098;2023-03-20T08:06:38;15.60;;;13.90;;
16892;SDS011;8563;52.242;9.098;2023-03-20T08:09:10;18.60;;;15.07;;
16892;SDS011;8563;52.242;9.098;2023-03-20T08:11:43;16.37;;;14.40;;
16892;SDS011;8563;52.242;9.098;2023-03-20T08:14:15;15.97;;;14.27;;
16892;SDS011;8563;52.242;9.098;2023-03-20T08:16:47;16.13;;;14.43;;
16892;SDS011;8563;52.242;9.098;2023-03-20T08:19:20;15.77;;;13.73;;
16892;SDS011;8563;52.242;9.098;2023-03-20T08:21:53;16.37;;;14.63;;
16892;SDS011;8563;52.242;9.098;2023-03-20T08:24:25;16.13;;;14.43;;
16892;SDS011;8563;52.242;9.098;2023-03-20T08:26:58;15.27;;;13.73;;
16892;SDS011;8563;52.242;9.098;2023-03-20T08:29:30;17.27;;;15.43;;
16892;SDS011;8563;52.242;9.098;2023-03-20T08:32:03;17.70;;;15.40;;
16892;SDS011;8563;52.242;9.098;2023-03-20T08:34:35;17.30;;;15.30;;
16892;SDS011;8563;52.242;9.098;2023-03-20T08:37:07;16.87;;;15.17;;
16892;SDS011;8563;52.242;9.098;2023-03-20T08:39:41;16.87;;;15.17;;
16892;SDS011;8563;52.242;9.098;2023-03-20T08:42:15;16.17;;;14.47;;
16892;SDS011;8563;52.242;9.098;2023-03-20T08:44:47;14.10;;;12.70;;
16892;SDS011;8563;52.242;9.098;2023-03-20T08:47:19;14.47;;;12.97;;
16892;SDS011;8563;52.242;9.098;2023-03-20T08:49:52;15.27;;;13.67;;
16892;SDS011;8563;52.242;9.098;2023-03-20T08:52:24;15.03;;;13.63;;
16892;SDS011;8563;52.242;9.098;2023-03-20T08:54:57;15.20;;;13.60;;
16892;SDS011;8563;52.242;9.098;2023-03-20T08:57:31;15.87;;;12.90;;
16892;SDS011;8563;52.242;9.098;2023-03-20T09:00:03;15.50;;;13.70;;
16892;SDS011;8563;52.242;9.098;2023-03-20T09:02:36;13.87;;;12.47;;
16892;SDS011;8563;52.242;9.098;2023-03-20T09:05:09;14.50;;;12.57;;
16892;SDS011;8563;52.242;9.098;2023-03-20T09:07:41;12.90;;;11.43;;
16892;SDS011;8563;52.242;9.098;2023-03-20T09:10:14;11.87;;;10.57;;
16892;SDS011;8563;52.242;9.098;2023-03-20T09:12:48;11.57;;;10.47;;
16892;SDS011;8563;52.242;9.098;2023-03-20T09:15:22;11.50;;;10.30;;
16892;SDS011;8563;52.242;9.098;2023-03-20T09:17:54;10.17;;;9.07;;
16892;SDS011;8563;52.242;9.098;2023-03-20T09:20:26;10.83;;;9.70;;
16892;SDS011;8563;52.242;9.098;2023-03-20T09:23:01;9.83;;;8.87;;
16892;SDS011;8563;52.242;9.098;2023-03-20T09:25:33;11.67;;;8.43;;
16892;SDS011;8563;52.242;9.098;2023-03-20T09:28:07;8.67;;;7.70;;
16892;SDS011;8563;52.242;9.098;2023-03-20T09:30:39;6.87;;;6.23;;
16892;SDS011;8563;52.242;9.098;2023-03-20T09:33:12;7.60;;;6.03;;
16892;SDS011;8563;52.242;9.098;2023-03-20T09:35:45;7.27;;;5.03;;
16892;SDS011;8563;52.242;9.098;2023-03-20T09:38:17;6.50;;;5.33;;
16892;SDS011;8563;52.242;9.098;2023-03-20T09:40:51;6.40;;;4.93;;
16892;SDS011;8563;52.242;9.098;2023-03-20T09:43:28;6.60;;;5.50;;
16892;SDS011;8563;52.242;9.098;2023-03-20T09:46:11;7.13;;;5.30;;
16892;SDS011;8563;52.242;9.098;2023-03-20T09:49:13;6.83;;;5.30;;
16892;SDS011;8563;52.242;9.098;2023-03-20T09:51:53;6.07;;;5.10;;
16892;SDS011;8563;52.242;9.098;2023-03-20T09:54:30;5.67;;;4.80;;
16892;SDS011;8563;52.242;9.098;2023-03-20T09:57:08;6.03;;;4.77;;
16892;SDS011;8563;52.242;9.098;2023-03-20T09:59:53;7.17;;;5.03;;
16892;SDS011;8563;52.242;9.098;2023-03-20T10:02:32;5.50;;;4.63;;
16892;SDS011;8563;52.242;9.098;2023-03-20T10:05:12;6.03;;;4.37;;
16892;SDS011;8563;52.242;9.098;2023-03-20T10:07:50;5.67;;;4.13;;
16892;SDS011;8563;52.242;9.098;2023-03-20T10:10:26;5.90;;;4.63;;
16892;SDS011;8563;52.242;9.098;2023-03-20T10:13:07;6.03;;;4.60;;
16892;SDS011;8563;52.242;9.098;2023-03-20T10:16:08;8.37;;;4.10;;
16892;SDS011;8563;52.242;9.098;2023-03-20T10:18:48;5.83;;;4.10;;
16892;SDS011;8563;52.242;9.098;2023-03-20T10:21:29;4.40;;;4.00;;
16892;SDS011;8563;52.242;9.098;2023-03-20T10:24:08;6.83;;;4.20;;
16892;SDS011;8563;52.242;9.098;2023-03-20T10:26:49;5.67;;;3.90;;
16892;SDS011;8563;52.242;9.098;2023-03-20T10:29:26;5.33;;;4.50;;
16892;SDS011;8563;52.242;9.098;2023-03-20T10:32:07;6.13;;;4.70;;
16892;SDS011;8563;52.242;9.098;2023-03-20T10:34:47;6.20;;;4.77;;
16892;SDS011;8563;52.242;9.098;2023-03-20T10:40:22;8.27;;;5.57;;
16892;SDS011;8563;52.242;9.098;2023-03-20T10:42:59;6.97;;;5.20;;
16892;SDS011;8563;52.242;9.098;2023-03-20T10:45:36;6.73;;;5.17;;
16892;SDS011;8563;52.242;9.098;2023-03-20T10:48:15;8.07;;;5.80;;
16892;SDS011;8563;52.242;9.098;2023-03-20T10:50:51;8.50;;;6.00;;
16892;SDS011;8563;52.242;9.098;2023-03-20T10:53:27;7.30;;;5.30;;
16892;SDS011;8563;52.242;9.098;2023-03-20T10:56:03;9.73;;;6.10;;
16892;SDS011;8563;52.242;9.098;2023-03-20T10:58:38;7.80;;;5.97;;
16892;SDS011;8563;52.242;9.098;2023-03-20T11:01:12;6.87;;;5.30;;
16892;SDS011;8563;52.242;9.098;2023-03-20T11:03:46;10.37;;;5.97;;
16892;SDS011;8563;52.242;9.098;2023-03-20T11:06:19;6.10;;;5.03;;
16892;SDS011;8563;52.242;9.098;2023-03-20T11:08:57;10.03;;;5.70;;
16892;SDS011;8563;52.242;9.098;2023-03-20T11:11:42;7.70;;;5.90;;
16892;SDS011;8563;52.242;9.098;2023-03-20T11:14:17;7.60;;;5.53;;
16892;SDS011;8563;52.242;9.098;2023-03-20T11:16:52;7.47;;;5.67;;
16892;SDS011;8563;52.242;9.098;2023-03-20T11:19:27;8.83;;;5.80;;
16892;SDS011;8563;52.242;9.098;2023-03-20T11:22:06;9.07;;;6.00;;
16892;SDS011;8563;52.242;9.098;2023-03-20T11:24:39;8.43;;;5.70;;
16892;SDS011;8563;52.242;9.098;2023-03-20T11:27:13;9.23;;;5.70;;
16892;SDS011;8563;52.242;9.098;2023-03-20T11:29:48;7.60;;;5.57;;
16892;SDS011;8563;52.242;9.098;2023-03-20T11:32:26;8.80;;;5.90;;
16892;SDS011;8563;52.242;9.098;2023-03-20T11:35:10;6.63;;;4.90;;
16892;SDS011;8563;52.242;9.098;2023-03-20T11:37:49;8.53;;;5.90;;
16892;SDS011;8563;52.242;9.098;2023-03-20T11:40:24;6.87;;;5.67;;
16892;SDS011;8563;52.242;9.098;2023-03-20T11:43:02;7.30;;;6.10;;
16892;SDS011;8563;52.242;9.098;2023-03-20T11:45:40;9.17;;;5.77;;
16892;SDS011;8563;52.242;9.098;2023-03-20T11:48:18;6.73;;;5.10;;
16892;SDS011;8563;52.242;9.098;2023-03-20T11:50:57;7.93;;;5.50;;
16892;SDS011;8563;52.242;9.098;2023-03-20T11:53:34;7.33;;;5.17;;
16892;SDS011;8563;52.242;9.098;2023-03-20T11:56:10;9.47;;;5.03;;
16892;SDS011;8563;52.242;9.098;2023-03-20T11:58:46;7.10;;;5.37;;
16892;SDS011;8563;52.242;9.098;2023-03-20T12:01:26;7.47;;;4.93;;
16892;SDS011;8563;52.242;9.098;2023-03-20T12:04:08;6.77;;;5.23;;
16892;SDS011;8563;52.242;9.098;2023-03-20T12:06:46;6.37;;;4.93;;
16892;SDS011;8563;52.242;9.098;2023-03-20T12:09:25;6.00;;;5.00;;
16892;SDS011;8563;52.242;9.098;2023-03-20T12:12:17;6.40;;;5.40;;
16892;SDS011;8563;52.242;9.098;2023-03-20T12:14:56;7.20;;;4.43;;
16892;SDS011;8563;52.242;9.098;2023-03-20T12:17:41;7.60;;;5.73;;
16892;SDS011;8563;52.242;9.098;2023-03-20T12:20:29;7.07;;;6.07;;
16892;SDS011;8563;52.242;9.098;2023-03-20T12:23:21;8.33;;;5.87;;
16892;SDS011;8563;52.242;9.098;2023-03-20T12:26:02;7.97;;;5.67;;
16892;SDS011;8563;52.242;9.098;2023-03-20T12:28:39;6.23;;;5.53;;
16892;SDS011;8563;52.242;9.098;2023-03-20T12:31:20;7.60;;;5.20;;
16892;SDS011;8563;52.242;9.098;2023-03-20T12:33:56;7.63;;;4.90;;
16892;SDS011;8563;52.242;9.098;2023-03-20T12:36:32;7.10;;;4.50;;
16892;SDS011;8563;52.242;9.098;2023-03-20T12:39:10;10.90;;;5.20;;
16892;SDS011;8563;52.242;9.098;2023-03-20T12:41:48;5.60;;;4.07;;
16892;SDS011;8563;52.242;9.098;2023-03-20T12:44:37;5.80;;;4.07;;
16892;SDS011;8563;52.242;9.098;2023-03-20T12:47:19;7.40;;;4.30;;
16892;SDS011;8563;52.242;9.098;2023-03-20T12:50:20;4.77;;;3.77;;
16892;SDS011;8563;52.242;9.098;2023-03-20T12:55:59;4.53;;;3.93;;
16892;SDS011;8563;52.242;9.098;2023-03-20T12:58:39;6.03;;;4.07;;
16892;SDS011;8563;52.242;9.098;2023-03-20T13:01:15;5.80;;;3.63;;
16892;SDS011;8563;52.242;9.098;2023-03-20T13:04:06;6.93;;;3.90;;
16892;SDS011;8563;52.242;9.098;2023-03-20T13:06:58;6.20;;;4.23;;
16892;SDS011;8563;52.242;9.098;2023-03-20T13:09:39;5.73;;;4.03;;
16892;SDS011;8563;52.242;9.098;2023-03-20T13:12:27;6.10;;;3.90;;
16892;SDS011;8563;52.242;9.098;2023-03-20T13:15:17;6.60;;;4.20;;
16892;SDS011;8563;52.242;9.098;2023-03-20T13:18:03;5.00;;;4.27;;
16892;SDS011;8563;52.242;9.098;2023-03-20T13:20:41;6.33;;;4.27;;
16892;SDS011;8563;52.242;9.098;2023-03-20T13:23:20;6.00;;;3.83;;
16892;SDS011;8563;52.242;9.098;2023-03-20T13:26:02;4.80;;;3.77;;
16892;SDS011;8563;52.242;9.098;2023-03-20T13:28:48;4.33;;;3.57;;
16892;SDS011;8563;52.242;9.098;2023-03-20T13:31:29;6.37;;;3.80;;
16892;SDS011;8563;52.242;9.098;2023-03-20T13:34:11;4.57;;;3.33;;
16892;SDS011;8563;52.242;9.098;2023-03-20T13:36:54;5.67;;;2.77;;
16892;SDS011;8563;52.242;9.098;2023-03-20T13:39:37;3.90;;;3.17;;
16892;SDS011;8563;52.242;9.098;2023-03-20T13:42:16;4.33;;;3.10;;
16892;SDS011;8563;52.242;9.098;2023-03-20T13:44:54;7.03;;;3.67;;
16892;SDS011;8563;52.242;9.098;2023-03-20T13:47:31;4.77;;;3.37;;
16892;SDS011;8563;52.242;9.098;2023-03-20T13:50:11;7.20;;;3.17;;
16892;SDS011;8563;52.242;9.098;2023-03-20T13:52:55;4.80;;;3.13;;
16892;SDS011;8563;52.242;9.098;2023-03-20T13:55:35;5.27;;;2.90;;
16892;SDS011;8563;52.242;9.098;2023-03-20T13:58:19;5.37;;;3.23;;
16892;SDS011;8563;52.242;9.098;2023-03-20T14:01:03;5.00;;;2.80;;
16892;SDS011;8563;52.242;9.098;2023-03-20T14:03:43;6.20;;;2.97;;
16892;SDS011;8563;52.242;9.098;2023-03-20T14:06:17;5.77;;;2.90;;
16892;SDS011;8563;52.242;9.098;2023-03-20T14:09:23;4.97;;;2.40;;
16892;SDS011;8563;52.242;9.098;2023-03-20T14:12:04;4.87;;;2.80;;
16892;SDS011;8563;52.242;9.098;2023-03-20T14:14:40;5.40;;;2.50;;
16892;SDS011;8563;52.242;9.098;2023-03-20T14:17:16;6.00;;;2.33;;
16892;SDS011;8563;52.242;9.098;2023-03-20T14:19:51;6.43;;;2.37;;
16892;SDS011;8563;52.242;9.098;2023-03-20T14:22:25;3.07;;;2.00;;
16892;SDS011;8563;52.242;9.098;2023-03-20T14:25:03;3.40;;;2.30;;
16892;SDS011;8563;52.242;9.098;2023-03-20T14:27:51;4.83;;;2.50;;
16892;SDS011;8563;52.242;9.098;2023-03-20T14:30:39;4.27;;;2.70;;
16892;SDS011;8563;52.242;9.098;2023-03-20T14:33:26;4.93;;;2.40;;
16892;SDS011;8563;52.242;9.098;2023-03-20T14:39:03;4.93;;;2.50;;
16892;SDS011;8563;52.242;9.098;2023-03-20T14:41:47;3.80;;;2.43;;
16892;SDS011;8563;52.242;9.098;2023-03-20T14:44:34;6.30;;;2.60;;
16892;SDS011;8563;52.242;9.098;2023-03-20T14:47:20;4.43;;;2.53;;
16892;SDS011;8563;52.242;9.098;2023-03-20T14:50:02;4.33;;;2.63;;
16892;SDS011;8563;52.242;9.098;2023-03-20T14:52:44;5.37;;;3.13;;
16892;SDS011;8563;52.242;9.098;2023-03-20T14:55:29;6.20;;;3.20;;
16892;SDS011;8563;52.242;9.098;2023-03-20T14:58:03;5.67;;;4.30;;
16892;SDS011;8563;52.242;9.098;2023-03-20T15:00:57;6.90;;;3.90;;
16892;SDS011;8563;52.242;9.098;2023-03-20T15:03:32;6.30;;;3.90;;
16892;SDS011;8563;52.242;9.098;2023-03-20T15:06:09;6.23;;;3.83;;
16892;SDS011;8563;52.242;9.098;2023-03-20T15:08:42;6.80;;;4.63;;
16892;SDS011;8563;52.242;9.098;2023-03-20T15:11:17;7.50;;;4.47;;
16892;SDS011;8563;52.242;9.098;2023-03-20T15:13:51;5.57;;;3.57;;
16892;SDS011;8563;52.242;9.098;2023-03-20T15:16:25;5.30;;;3.77;;
16892;SDS011;8563;52.242;9.098;2023-03-20T15:18:59;9.90;;;3.70;;
16892;SDS011;8563;52.242;9.098;2023-03-20T15:21:33;6.37;;;3.53;;
16892;SDS011;8563;52.242;9.098;2023-03-20T15:24:13;5.93;;;3.60;;
16892;SDS011;8563;52.242;9.098;2023-03-20T15:26:50;3.97;;;3.53;;
16892;SDS011;8563;52.242;9.098;2023-03-20T15:29:24;6.23;;;3.37;;
16892;SDS011;8563;52.242;9.098;2023-03-20T15:31:58;6.53;;;3.70;;
16892;SDS011;8563;52.242;9.098;2023-03-20T15:34:32;7.73;;;3.47;;
16892;SDS011;8563;52.242;9.098;2023-03-20T15:37:07;5.97;;;3.13;;
16892;SDS011;8563;52.242;9.098;2023-03-20T15:39:46;4.77;;;3.47;;
16892;SDS011;8563;52.242;9.098;2023-03-20T15:42:19;6.63;;;3.90;;
16892;SDS011;8563;52.242;9.098;2023-03-20T15:44:53;6.40;;;3.57;;
16892;SDS011;8563;52.242;9.098;2023-03-20T15:47:27;4.87;;;3.57;;
16892;SDS011;8563;52.242;9.098;2023-03-20T15:49:59;5.77;;;3.97;;
16892;SDS011;8563;52.242;9.098;2023-03-20T15:52:35;6.47;;;3.90;;
16892;SDS011;8563;52.242;9.098;2023-03-20T15:55:13;7.10;;;3.70;;
16892;SDS011;8563;52.242;9.098;2023-03-20T15:57:49;5.40;;;3.33;;
16892;SDS011;8563;52.242;9.098;2023-03-20T16:00:25;9.13;;;4.10;;
16892;SDS011;8563;52.242;9.098;2023-03-20T16:03:00;6.63;;;4.20;;
16892;SDS011;8563;52.242;9.098;2023-03-20T16:05:37;5.27;;;3.87;;
16892;SDS011;8563;52.242;9.098;2023-03-20T16:08:17;6.60;;;4.13;;
16892;SDS011;8563;52.242;9.098;2023-03-20T16:10:54;7.23;;;3.83;;